Archival Weather

Tokyo Intl

Tokyo Intl, Japan (RJTT)

Report from: Friday, June 24, 2022 1:30 PM JST
Current time: Tuesday, August 16, 2022 10:47 AM JST

Current weather
Weather history
Weather forecast

Temperature31.0°C (87.8°F)
Heat index35.5°C (95.9°F)
Dew point23.0°C (73.4°F)
Winds 23 kts (11.8 m/s, 26.5 mph) South-Southwest (200°)
Wind gusts 34 kts (17.5 m/s, 39.1 mph)
Visibility6.2 mi. (10 km)
Clouds Ceiling: Broken clouds 0 ft. (0 m)
Few clouds 2,500 ft. (762 m)
Altimeter29.62 in.Hg (1003 mB)
Relative humidity63 %
Density altitude2,552 ft. (778 m)
Flight conditions Low Instrument Meteorological Conditions
Raw dataRJTT 240430Z 20023KT 9999 FEW025 BKN/// 31/23 Q1003 TEMPO 20024G34KT
An error has occurred. This application may no longer respond until reloaded. Reload 🗙